Time;durP1;ratioP1;P1;durP2;ratioP2;P2;SDS_P1;SDS_P2;PMS_P1;PMS_P2;Temp;Humidity;BMP_temperature;BMP_pressure;BME280_temperature;BME280_humidity;BME280_pressure;Samples;Min_cycle;Max_cycle;Signal;HPM_P1;HPM_P2
2020/12/01 00:00:52;;;;;;;18.50;14.38;;;2.50;1.00;;;;;;5093601;28;20226;-76
2020/12/01 00:03:18;;;;;;;21.10;15.43;;;2.50;1.00;;;;;;5086647;27;20226;-76
2020/12/01 00:05:44;;;;;;;17.90;15.77;;;2.50;1.00;;;;;;5083347;28;20712;-76
2020/12/01 00:08:10;;;;;;;19.40;16.17;;;2.50;1.00;;;;;;5086786;28;20700;-77
2020/12/01 00:10:39;;;;;;;17.40;14.85;;;2.50;1.00;;;;;;5083684;28;20303;-77
2020/12/01 00:13:06;;;;;;;17.52;15.63;;;2.50;1.00;;;;;;5086899;28;20220;-76
2020/12/01 00:15:32;;;;;;;19.00;14.40;;;2.60;1.00;;;;;;5084197;28;20273;-75
2020/12/01 00:18:00;;;;;;;17.30;15.50;;;2.60;1.00;;;;;;5084186;28;20231;-76
2020/12/01 00:20:26;;;;;;;15.95;14.23;;;2.60;1.00;;;;;;5075803;28;20728;-76
2020/12/01 00:22:54;;;;;;;18.08;14.98;;;2.60;1.00;;;;;;5083252;28;20246;-75
2020/12/01 00:25:22;;;;;;;19.65;15.93;;;2.60;1.00;;;;;;5083275;28;20262;-76
2020/12/01 00:27:49;;;;;;;18.40;16.58;;;2.60;1.00;;;;;;5084509;28;20219;-75
2020/12/01 00:30:18;;;;;;;19.45;15.60;;;2.60;1.00;;;;;;5082312;28;20730;-77
2020/12/01 00:32:45;;;;;;;17.50;14.55;;;2.60;1.00;;;;;;5081310;28;20216;-76
2020/12/01 00:35:15;;;;;;;18.30;15.52;;;2.60;1.00;;;;;;5087322;28;20237;-74
2020/12/01 00:37:42;;;;;;;20.77;16.50;;;2.60;1.00;;;;;;5083076;28;20794;-75
2020/12/01 00:40:09;;;;;;;21.20;15.50;;;2.60;1.00;;;;;;5084493;28;20289;-77
2020/12/01 00:42:36;;;;;;;19.88;16.10;;;2.60;1.00;;;;;;5083079;28;20220;-74
2020/12/01 00:45:03;;;;;;;19.88;16.67;;;2.60;1.00;;;;;;5079428;28;20223;-76
2020/12/01 00:47:29;;;;;;;19.13;15.43;;;2.70;1.00;;;;;;5085148;28;20216;-74
2020/12/01 00:49:55;;;;;;;19.80;16.27;;;2.70;1.00;;;;;;5083414;28;20232;-75
2020/12/01 00:52:22;;;;;;;17.95;15.60;;;2.70;1.00;;;;;;5081251;28;21074;-75
2020/12/01 00:54:48;;;;;;;18.48;15.30;;;2.70;1.00;;;;;;5082752;28;20317;-75
2020/12/01 00:57:14;;;;;;;18.48;16.52;;;2.70;1.00;;;;;;5086316;28;20216;-75
2020/12/01 00:59:40;;;;;;;17.35;15.25;;;2.70;1.00;;;;;;5087081;28;20243;-76
2020/12/01 01:02:07;;;;;;;19.83;16.00;;;2.70;1.00;;;;;;5088589;28;20209;-75
2020/12/01 01:04:33;;;;;;;18.90;16.40;;;2.70;1.00;;;;;;5100286;28;20220;-76
2020/12/01 01:06:59;;;;;;;20.95;18.15;;;2.70;1.00;;;;;;5092501;28;20255;-76
2020/12/01 01:09:26;;;;;;;21.27;17.33;;;2.60;1.00;;;;;;5089545;28;20768;-75
2020/12/01 01:11:52;;;;;;;20.20;16.63;;;2.60;1.00;;;;;;5087542;28;20341;-74
2020/12/01 01:14:19;;;;;;;19.95;15.52;;;2.60;1.00;;;;;;5088697;28;20245;-76
2020/12/01 01:16:46;;;;;;;19.60;17.05;;;2.70;1.00;;;;;;5087929;28;20244;-76
2020/12/01 01:19:14;;;;;;;21.08;16.15;;;2.70;1.00;;;;;;5084819;28;20247;-75
2020/12/01 01:21:42;;;;;;;19.77;16.50;;;2.80;1.00;;;;;;5085608;28;20224;-75
2020/12/01 01:24:09;;;;;;;21.25;17.25;;;2.70;1.00;;;;;;5083767;28;20216;-76
2020/12/01 01:26:36;;;;;;;19.10;16.42;;;2.70;1.00;;;;;;5090043;28;20750;-76
2020/12/01 01:29:02;;;;;;;21.02;16.63;;;2.70;1.00;;;;;;5078397;28;20226;-75
2020/12/01 01:31:29;;;;;;;19.75;17.48;;;2.70;1.00;;;;;;5088233;28;20677;-76
2020/12/01 01:33:55;;;;;;;22.88;17.30;;;2.70;1.00;;;;;;5083016;28;20614;-77
2020/12/01 01:36:21;;;;;;;21.95;17.65;;;2.80;1.00;;;;;;5088404;28;21103;-76
2020/12/01 01:38:48;;;;;;;22.48;18.00;;;2.70;1.00;;;;;;5085766;28;20232;-76
2020/12/01 01:41:14;;;;;;;21.85;17.15;;;2.70;1.00;;;;;;5086053;28;20738;-76
2020/12/01 01:43:41;;;;;;;23.20;17.02;;;2.80;1.00;;;;;;5088383;28;20224;-75
2020/12/01 01:46:37;;;;;;;19.70;16.30;;;2.80;1.00;;;;;;5086268;28;20334;-76
2020/12/01 01:49:06;;;;;;;20.65;16.20;;;2.80;1.00;;;;;;5089469;28;20450;-75
2020/12/01 01:51:34;;;;;;;19.70;17.50;;;2.80;1.00;;;;;;5085198;28;20744;-76
2020/12/01 01:54:00;;;;;;;23.40;17.73;;;2.80;1.00;;;;;;5094338;28;20224;-76
2020/12/01 01:56:30;;;;;;;19.27;16.00;;;2.80;1.00;;;;;;5084693;28;20224;-74
2020/12/01 01:58:58;;;;;;;19.90;15.98;;;2.80;1.00;;;;;;5089409;28;20239;-75
2020/12/01 02:01:27;;;;;;;18.13;16.10;;;2.80;1.00;;;;;;5088029;28;20224;-74
2020/12/01 02:03:56;;;;;;;19.40;16.80;;;2.80;1.00;;;;;;5092008;28;21345;-74
2020/12/01 02:06:26;;;;;;;19.33;15.23;;;2.80;1.00;;;;;;5088885;28;20224;-74
2020/12/01 02:08:56;;;;;;;19.45;17.35;;;2.70;1.00;;;;;;5087406;28;20750;-77
2020/12/01 02:11:23;;;;;;;19.52;16.75;;;2.70;1.00;;;;;;5087984;28;20224;-75
2020/12/01 02:14:00;;;;;;;23.10;17.30;;;2.70;1.00;;;;;;5086429;28;20249;-76
2020/12/01 02:16:28;;;;;;;23.70;18.15;;;2.70;1.00;;;;;;5090012;28;20239;-76
2020/12/01 02:18:54;;;;;;;21.70;17.52;;;2.70;1.00;;;;;;5090458;28;20288;-74
2020/12/01 02:21:27;;;;;;;20.45;18.10;;;2.80;1.00;;;;;;5095120;28;20227;-74
2020/12/01 02:23:54;;;;;;;21.63;18.25;;;2.80;1.00;;;;;;5091500;28;20231;-75
2020/12/01 02:26:22;;;;;;;21.42;18.20;;;2.80;1.00;;;;;;5087128;28;20311;-76
2020/12/01 02:28:48;;;;;;;20.92;17.80;;;2.80;1.00;;;;;;5080404;28;20719;-76
2020/12/01 02:31:14;;;;;;;23.45;17.60;;;2.80;1.00;;;;;;5089145;28;20358;-76
2020/12/01 02:33:40;;;;;;;19.77;17.15;;;2.70;1.00;;;;;;5083231;28;20351;-75
2020/12/01 02:36:07;;;;;;;21.27;17.80;;;2.80;1.00;;;;;;5091557;28;20291;-74
2020/12/01 02:38:33;;;;;;;19.95;16.70;;;2.70;1.00;;;;;;5092031;28;20232;-77
2020/12/01 02:40:59;;;;;;;22.02;18.13;;;2.80;1.00;;;;;;5094123;28;20996;-74
2020/12/01 02:43:26;;;;;;;24.35;18.13;;;2.70;1.00;;;;;;5104751;28;20254;-75
2020/12/01 02:45:52;;;;;;;23.75;19.33;;;2.80;1.00;;;;;;5101897;28;20232;-74
2020/12/01 02:48:18;;;;;;;22.20;17.52;;;2.80;1.00;;;;;;5106725;28;21037;-74
2020/12/01 02:50:44;;;;;;;20.40;18.30;;;2.80;1.00;;;;;;5100480;28;20306;-76
2020/12/01 02:53:11;;;;;;;23.30;18.35;;;2.80;1.00;;;;;;5087596;28;20462;-75
2020/12/01 02:55:37;;;;;;;21.63;18.50;;;2.80;1.00;;;;;;5084678;28;20221;-76
2020/12/01 02:58:05;;;;;;;22.55;19.70;;;2.80;1.00;;;;;;5095988;28;20288;-75
2020/12/01 03:00:33;;;;;;;25.65;19.10;;;2.80;1.00;;;;;;5105744;28;20232;-76
2020/12/01 03:02:59;;;;;;;26.17;18.67;;;2.80;1.00;;;;;;5101599;28;20232;-75
2020/12/01 03:05:26;;;;;;;21.15;17.17;;;2.90;1.00;;;;;;5095919;27;20223;-75
2020/12/01 03:07:52;;;;;;;26.60;19.48;;;2.90;1.00;;;;;;5087331;28;20228;-76
2020/12/01 03:10:18;;;;;;;22.17;17.50;;;3.00;1.00;;;;;;5083694;28;20970;-76
2020/12/01 03:12:45;;;;;;;24.88;18.05;;;3.00;1.00;;;;;;5086893;28;20242;-75
2020/12/01 03:15:13;;;;;;;26.52;20.60;;;3.00;1.00;;;;;;5088728;28;20227;-75
2020/12/01 03:17:41;;;;;;;24.38;19.73;;;3.00;1.00;;;;;;5083949;28;20267;-76
2020/12/01 03:20:07;;;;;;;26.75;20.58;;;3.00;1.00;;;;;;5085329;28;20238;-75
2020/12/01 03:22:34;;;;;;;24.55;20.15;;;2.90;1.00;;;;;;5084374;28;20216;-74
2020/12/01 03:25:00;;;;;;;22.38;18.55;;;2.90;1.00;;;;;;5085894;28;20256;-76
2020/12/01 03:27:27;;;;;;;24.08;20.00;;;2.90;1.00;;;;;;5086536;28;20223;-75
2020/12/01 03:29:53;;;;;;;24.80;19.33;;;2.90;1.00;;;;;;5082542;28;20236;-74
2020/12/01 03:32:21;;;;;;;25.42;19.63;;;3.00;1.00;;;;;;5084569;28;20941;-75
2020/12/01 03:34:48;;;;;;;26.58;19.85;;;3.00;1.00;;;;;;5085369;28;20213;-75
2020/12/01 03:37:15;;;;;;;25.83;19.50;;;3.00;1.00;;;;;;5082062;28;20274;-75
2020/12/01 03:39:41;;;;;;;25.38;19.42;;;2.90;1.00;;;;;;5083239;28;20775;-74
2020/12/01 03:42:07;;;;;;;26.80;22.35;;;2.90;1.00;;;;;;5085835;28;20240;-75
2020/12/01 03:44:33;;;;;;;27.15;20.38;;;2.90;1.00;;;;;;5093621;28;20212;-75
2020/12/01 03:46:59;;;;;;;27.50;19.63;;;2.90;1.00;;;;;;5086215;28;20970;-75
2020/12/01 03:49:25;;;;;;;29.25;21.85;;;2.90;1.00;;;;;;5092688;28;20240;-73
2020/12/01 03:51:52;;;;;;;26.27;22.05;;;2.90;1.00;;;;;;5085067;28;20222;-76
2020/12/01 03:54:19;;;;;;;25.35;19.90;;;3.00;1.00;;;;;;5081981;28;20714;-74
2020/12/01 03:56:45;;;;;;;28.13;22.15;;;2.90;1.00;;;;;;5080750;28;20325;-74
2020/12/01 03:59:11;;;;;;;26.08;21.60;;;2.90;1.00;;;;;;5081430;28;20338;-74
2020/12/01 04:01:37;;;;;;;29.70;22.45;;;2.90;1.00;;;;;;5080357;28;20259;-74
2020/12/01 04:04:03;;;;;;;29.08;21.88;;;3.00;1.00;;;;;;5085796;28;21100;-74
2020/12/01 04:06:29;;;;;;;27.90;22.42;;;3.00;1.00;;;;;;5083866;28;20224;-76
2020/12/01 04:08:56;;;;;;;27.13;21.77;;;3.00;1.00;;;;;;5084570;28;20307;-76
2020/12/01 04:11:24;;;;;;;26.95;21.70;;;3.00;1.00;;;;;;5087692;28;20220;-76
2020/12/01 04:13:50;;;;;;;29.40;23.30;;;3.00;1.00;;;;;;5085107;28;21208;-76
2020/12/01 04:16:17;;;;;;;26.70;21.67;;;3.00;1.00;;;;;;5080424;28;20797;-77
2020/12/01 04:18:43;;;;;;;31.08;21.80;;;3.10;1.00;;;;;;5087673;28;20764;-75
2020/12/01 04:21:09;;;;;;;29.58;23.33;;;3.00;1.00;;;;;;5081169;28;20212;-74
2020/12/01 04:23:35;;;;;;;33.67;22.60;;;3.00;1.00;;;;;;5086103;28;20285;-76
2020/12/01 04:26:02;;;;;;;27.30;23.40;;;3.00;1.00;;;;;;5086660;28;20687;-75
2020/12/01 04:28:28;;;;;;;29.58;23.35;;;3.00;1.00;;;;;;5081630;28;20315;-75
2020/12/01 04:30:54;;;;;;;29.90;22.65;;;3.00;1.00;;;;;;5082084;28;21084;-75
2020/12/01 04:33:21;;;;;;;30.88;22.42;;;3.00;1.00;;;;;;5086086;28;20670;-75
2020/12/01 04:35:47;;;;;;;33.10;25.55;;;3.00;1.00;;;;;;5077876;28;20328;-77
2020/12/01 04:38:13;;;;;;;30.77;23.52;;;3.00;1.00;;;;;;5082192;28;20242;-76
2020/12/01 04:40:40;;;;;;;32.58;23.95;;;3.00;1.00;;;;;;5085211;28;20236;-77
2020/12/01 04:43:15;;;;;;;30.45;23.02;;;3.00;1.00;;;;;;5080404;28;20282;-76
2020/12/01 04:45:45;;;;;;;32.47;24.35;;;3.00;1.00;;;;;;5081595;28;20875;-76
2020/12/01 04:48:18;;;;;;;32.38;25.08;;;3.00;1.00;;;;;;5081977;28;20232;-74
2020/12/01 04:50:50;;;;;;;34.15;24.38;;;3.00;1.00;;;;;;5085542;28;20311;-75
2020/12/01 04:53:41;;;;;;;29.95;23.35;;;3.00;1.00;;;;;;5086666;28;20343;-76
2020/12/01 04:56:33;;;;;;;34.00;25.45;;;3.00;1.00;;;;;;5084407;28;20280;-76
2020/12/01 04:59:18;;;;;;;34.50;26.38;;;3.00;1.00;;;;;;5083291;28;20729;-75
2020/12/01 05:02:26;;;;;;;31.10;24.98;;;3.00;1.00;;;;;;5094077;28;20299;-76
2020/12/01 05:05:08;;;;;;;35.30;25.80;;;3.00;1.00;;;;;;5092146;28;20223;-77
2020/12/01 05:07:45;;;;;;;31.13;24.80;;;3.00;1.00;;;;;;5096366;28;21085;-76
2020/12/01 05:10:14;;;;;;;34.63;26.63;;;3.00;1.00;;;;;;5096779;28;20217;-76
2020/12/01 05:12:44;;;;;;;37.58;28.95;;;3.10;1.00;;;;;;5100955;28;20244;-76
2020/12/01 05:15:16;;;;;;;39.80;29.40;;;3.10;1.00;;;;;;5097712;28;21235;-74
2020/12/01 05:18:08;;;;;;;33.92;26.50;;;3.00;1.00;;;;;;5098840;28;20251;-76
2020/12/01 05:20:43;;;;;;;37.47;27.95;;;3.00;1.00;;;;;;5098337;28;20244;-76
2020/12/01 05:23:10;;;;;;;34.63;25.60;;;3.00;1.00;;;;;;5084097;28;20723;-76
2020/12/01 05:25:36;;;;;;;39.85;26.70;;;3.00;1.00;;;;;;5085948;28;20978;-74
2020/12/01 05:28:08;;;;;;;35.25;27.70;;;3.00;1.00;;;;;;5079161;28;20331;-75
2020/12/01 05:30:36;;;;;;;35.30;28.83;;;3.00;1.00;;;;;;5092518;28;20243;-76
2020/12/01 05:33:07;;;;;;;36.33;27.48;;;3.00;1.00;;;;;;5097345;28;20250;-76
2020/12/01 05:35:34;;;;;;;37.47;27.05;;;2.90;1.00;;;;;;5096525;28;20285;-76
2020/12/01 05:38:04;;;;;;;35.20;26.27;;;2.90;1.00;;;;;;5099333;28;20213;-75
2020/12/01 05:40:33;;;;;;;37.08;27.23;;;2.90;1.00;;;;;;5097176;28;20234;-76
2020/12/01 05:42:59;;;;;;;37.75;28.27;;;2.90;1.00;;;;;;5086127;28;20216;-74
2020/12/01 05:45:30;;;;;;;37.20;28.00;;;2.90;1.00;;;;;;5085689;28;20282;-75
2020/12/01 05:48:36;;;;;;;38.10;27.15;;;2.90;1.00;;;;;;5087625;27;20232;-75
2020/12/01 05:51:07;;;;;;;39.75;27.15;;;2.90;1.00;;;;;;5079748;28;20230;-75
2020/12/01 05:53:33;;;;;;;42.08;29.92;;;2.80;1.00;;;;;;5083714;28;20224;-76
2020/12/01 05:56:14;;;;;;;37.42;28.48;;;2.80;1.00;;;;;;5082569;28;20789;-76
2020/12/01 05:58:43;;;;;;;40.95;29.05;;;2.80;1.00;;;;;;5085522;28;20971;-76
2020/12/01 06:01:09;;;;;;;40.15;29.15;;;2.90;1.00;;;;;;5081176;28;20220;-76
2020/12/01 06:04:10;;;;;;;35.58;27.83;;;2.90;1.00;;;;;;5085386;28;20220;-78
2020/12/01 06:07:06;;;;;;;40.85;29.23;;;3.00;1.00;;;;;;5083317;28;20332;-76
2020/12/01 06:09:53;;;;;;;42.78;29.50;;;2.90;1.00;;;;;;5081674;28;20250;-75
2020/12/01 06:12:29;;;;;;;38.75;28.92;;;2.90;1.00;;;;;;5079428;28;20303;-74
2020/12/01 06:14:59;;;;;;;42.78;30.13;;;2.90;1.00;;;;;;5084976;28;20261;-75
2020/12/01 06:17:38;;;;;;;41.92;30.38;;;3.00;1.00;;;;;;5080437;28;20898;-75
2020/12/01 06:20:17;;;;;;;42.20;30.42;;;3.00;1.00;;;;;;5084386;28;21185;-77
2020/12/01 06:23:23;;;;;;;46.40;31.92;;;3.00;1.00;;;;;;5084939;28;20707;-75
2020/12/01 06:26:11;;;;;;;40.47;30.17;;;3.00;1.00;;;;;;5084049;28;20239;-73
2020/12/01 06:29:04;;;;;;;39.47;28.55;;;2.90;1.00;;;;;;5073576;28;20225;-75
2020/12/01 06:31:50;;;;;;;44.47;28.98;;;3.00;1.00;;;;;;5080568;28;20231;-75
2020/12/01 06:34:41;;;;;;;35.58;26.17;;;3.00;1.00;;;;;;5085001;28;21671;-75
2020/12/01 06:37:32;;;;;;;43.35;31.25;;;3.00;1.00;;;;;;5083594;28;20221;-74
2020/12/01 06:40:26;;;;;;;46.30;29.35;;;3.00;1.00;;;;;;5076459;28;20245;-75
2020/12/01 06:42:58;;;;;;;40.63;30.10;;;2.90;1.00;;;;;;5084408;28;20209;-76
2020/12/01 06:45:30;;;;;;;40.38;29.10;;;2.90;1.00;;;;;;5083916;28;20216;-75
2020/12/01 06:48:07;;;;;;;38.45;27.90;;;2.90;1.00;;;;;;5082846;28;20220;-73
2020/12/01 06:50:35;;;;;;;44.40;30.20;;;3.00;1.00;;;;;;5084757;28;20930;-75
2020/12/01 06:53:05;;;;;;;41.13;29.30;;;3.00;1.00;;;;;;5088109;28;20660;-75
2020/12/01 06:55:47;;;;;;;36.88;26.92;;;3.00;1.00;;;;;;5087421;28;21137;-75
2020/12/01 06:58:21;;;;;;;39.58;28.73;;;3.00;1.00;;;;;;5088954;28;20771;-75
2020/12/01 07:00:47;;;;;;;43.20;28.13;;;3.00;1.00;;;;;;5086262;28;20236;-75
2020/12/01 07:03:22;;;;;;;39.53;28.73;;;3.00;1.00;;;;;;5091412;28;20315;-74
2020/12/01 07:05:48;;;;;;;39.42;27.75;;;3.10;1.00;;;;;;5089308;28;20309;-75
2020/12/01 07:08:25;;;;;;;41.08;28.35;;;3.10;1.00;;;;;;5089703;28;20220;-73
2020/12/01 07:11:01;;;;;;;40.53;27.88;;;3.10;1.00;;;;;;5092902;28;20242;-75
2020/12/01 07:13:36;;;;;;;37.40;26.88;;;3.20;1.00;;;;;;5091007;28;20263;-74
2020/12/01 07:16:09;;;;;;;39.35;28.33;;;3.10;1.00;;;;;;5088616;28;20277;-74
2020/12/01 07:18:36;;;;;;;46.80;29.02;;;3.10;1.00;;;;;;5084229;28;20283;-74
2020/12/01 07:21:25;;;;;;;45.58;31.52;;;3.10;1.00;;;;;;5086484;28;20589;-73
2020/12/01 07:23:59;;;;;;;37.40;27.83;;;3.20;1.00;;;;;;5081691;28;20287;-74
2020/12/01 07:26:37;;;;;;;50.00;33.60;;;3.10;1.00;;;;;;5086099;28;20302;-74
2020/12/01 07:29:20;;;;;;;40.47;27.90;;;3.20;1.00;;;;;;5084743;28;20297;-74
2020/12/01 07:31:47;;;;;;;42.70;28.60;;;3.10;1.00;;;;;;5088873;28;20219;-75
2020/12/01 07:34:28;;;;;;;37.45;29.70;;;3.20;1.00;;;;;;5084647;28;20228;-75
2020/12/01 07:37:12;;;;;;;36.22;27.50;;;3.20;1.00;;;;;;5086101;28;20224;-74
2020/12/01 07:39:52;;;;;;;40.92;28.27;;;3.10;1.00;;;;;;5086987;28;20244;-74
2020/12/01 07:42:22;;;;;;;43.30;27.63;;;3.10;1.00;;;;;;5082925;28;20288;-74
2020/12/01 07:44:48;;;;;;;41.10;28.00;;;3.20;1.00;;;;;;5083634;28;20225;-76
2020/12/01 07:47:17;;;;;;;41.28;27.55;;;3.20;1.00;;;;;;5084046;28;20217;-75
2020/12/01 07:49:43;;;;;;;44.47;29.52;;;3.30;1.00;;;;;;5084999;28;20236;-75
2020/12/01 07:52:22;;;;;;;44.33;28.70;;;3.40;1.00;;;;;;5083919;28;20258;-74
2020/12/01 07:54:56;;;;;;;45.05;31.83;;;3.40;1.00;;;;;;5082393;28;20290;-74
2020/12/01 07:57:22;;;;;;;39.15;27.27;;;3.50;1.00;;;;;;5081609;28;20549;-74
2020/12/01 07:59:51;;;;;;;39.58;27.42;;;3.50;1.00;;;;;;5083631;28;20242;-74
2020/12/01 08:02:19;;;;;;;41.17;27.85;;;3.50;1.00;;;;;;5087728;28;20902;-75
2020/12/01 08:04:45;;;;;;;41.60;27.77;;;3.60;1.00;;;;;;5083307;28;20246;-76
2020/12/01 08:07:14;;;;;;;37.40;26.33;;;3.70;1.00;;;;;;5080928;28;20327;-75
2020/12/01 08:09:41;;;;;;;41.13;26.50;;;3.80;1.00;;;;;;5086216;28;20293;-75
2020/12/01 08:12:12;;;;;;;37.60;28.15;;;3.80;1.00;;;;;;5089293;28;20220;-75
2020/12/01 08:14:38;;;;;;;40.78;27.95;;;3.80;1.00;;;;;;5082089;28;20247;-74
2020/12/01 08:17:08;;;;;;;36.90;26.58;;;3.80;1.00;;;;;;5081165;28;20238;-74
2020/12/01 08:19:35;;;;;;;37.95;26.63;;;3.90;1.00;;;;;;5083664;28;20247;-75
2020/12/01 08:22:05;;;;;;;38.90;27.23;;;3.80;1.00;;;;;;5088928;28;20216;-76
2020/12/01 08:24:35;;;;;;;40.35;28.77;;;3.80;1.00;;;;;;5083239;28;20216;-76
2020/12/01 08:27:04;;;;;;;37.08;25.55;;;3.80;1.00;;;;;;5090704;28;20859;-75
2020/12/01 08:29:34;;;;;;;33.03;24.30;;;3.80;1.00;;;;;;5083494;28;20230;-75
2020/12/01 08:32:08;;;;;;;35.13;26.30;;;3.80;1.00;;;;;;5089411;28;20239;-76
2020/12/01 08:34:44;;;;;;;40.33;27.30;;;3.80;1.00;;;;;;5091348;28;20270;-75
2020/12/01 08:37:22;;;;;;;37.97;27.35;;;3.90;1.00;;;;;;5085476;28;20998;-75
2020/12/01 08:39:55;;;;;;;37.47;26.58;;;4.00;1.00;;;;;;5089025;28;20239;-76
2020/12/01 08:42:30;;;;;;;31.95;23.50;;;4.10;1.00;;;;;;5091280;28;20224;-75
2020/12/01 08:45:21;;;;;;;33.30;24.05;;;4.10;1.00;;;;;;5091979;28;20296;-74
2020/12/01 08:47:49;;;;;;;33.05;23.52;;;4.20;1.00;;;;;;5089488;28;20275;-75
2020/12/01 08:50:22;;;;;;;37.38;25.98;;;4.10;1.00;;;;;;5096190;28;20260;-74
2020/12/01 08:52:49;;;;;;;35.60;24.00;;;4.20;1.00;;;;;;5087124;28;20979;-76
2020/12/01 08:55:27;;;;;;;37.10;26.15;;;4.00;1.00;;;;;;5093493;28;21032;-75
2020/12/01 08:58:04;;;;;;;33.35;24.63;;;4.10;1.00;;;;;;5097685;28;20251;-75
2020/12/01 09:00:34;;;;;;;31.15;23.55;;;4.10;1.00;;;;;;5092540;28;20224;-74
2020/12/01 09:03:08;;;;;;;32.20;23.60;;;4.20;1.00;;;;;;5095269;28;20244;-74
2020/12/01 09:05:38;;;;;;;31.30;24.00;;;4.30;1.00;;;;;;5103400;28;20234;-74
2020/12/01 09:08:27;;;;;;;28.25;22.10;;;4.20;1.00;;;;;;5101986;28;20696;-75
2020/12/01 09:11:16;;;;;;;29.00;21.05;;;4.20;1.00;;;;;;5103903;28;20280;-74
2020/12/01 09:13:51;;;;;;;30.92;22.98;;;4.20;1.00;;;;;;5106827;28;20236;-74
2020/12/01 09:16:24;;;;;;;32.13;22.88;;;4.20;1.00;;;;;;5087247;28;20337;-75
2020/12/01 09:19:15;;;;;;;29.13;22.73;;;4.20;1.00;;;;;;5087208;28;20704;-75
2020/12/01 09:21:52;;;;;;;30.65;22.95;;;4.30;1.00;;;;;;5087874;28;20227;-74
2020/12/01 09:24:20;;;;;;;39.95;28.50;;;4.30;1.00;;;;;;5094767;28;20243;-74
2020/12/01 09:26:58;;;;;;;27.52;22.88;;;4.30;1.00;;;;;;5093017;28;21240;-76
2020/12/01 09:29:25;;;;;;;31.55;22.33;;;4.40;1.00;;;;;;5091991;28;20223;-75
2020/12/01 09:31:51;;;;;;;30.95;22.95;;;4.50;1.00;;;;;;5096892;28;20766;-75
2020/12/01 09:34:18;;;;;;;27.20;21.40;;;4.50;1.00;;;;;;5098341;28;20743;-75
2020/12/01 09:36:44;;;;;;;29.15;22.73;;;4.70;1.00;;;;;;5099254;28;20280;-74
2020/12/01 09:39:10;;;;;;;27.55;21.67;;;4.80;1.00;;;;;;5091393;27;20335;-77
2020/12/01 09:41:38;;;;;;;34.35;23.58;;;4.60;1.00;;;;;;5087484;28;20220;-76
2020/12/01 09:44:11;;;;;;;32.35;23.05;;;4.60;1.00;;;;;;5088366;28;20232;-75
2020/12/01 09:46:41;;;;;;;31.35;22.50;;;4.60;1.00;;;;;;5093373;28;20561;-75
2020/12/01 09:49:07;;;;;;;29.75;21.90;;;4.60;1.00;;;;;;5086008;28;20232;-74
2020/12/01 09:51:34;;;;;;;33.65;22.48;;;4.60;1.00;;;;;;5090719;27;20224;-75
2020/12/01 09:54:16;;;;;;;33.15;23.65;;;4.50;1.00;;;;;;5085140;28;20254;-76
2020/12/01 09:56:48;;;;;;;30.45;23.05;;;4.60;1.00;;;;;;5085077;28;20227;-75
2020/12/01 10:07:45;;;;;;;32.85;23.83;;;4.40;1.00;;;;;;5089229;28;20247;-75
2020/12/01 10:10:31;;;;;;;26.65;22.15;;;4.50;1.00;;;;;;5087778;28;20217;-76
2020/12/01 10:13:06;;;;;;;27.42;21.23;;;4.40;1.00;;;;;;5088794;28;22367;-75
2020/12/01 10:35:11;;;;;;;29.70;23.08;;;4.50;1.00;;;;;;5081552;28;20262;-76
2020/12/01 10:37:38;;;;;;;33.13;23.77;;;4.40;1.00;;;;;;5098898;28;20291;-76
2020/12/01 10:40:06;;;;;;;25.70;21.35;;;4.50;1.00;;;;;;5107138;28;20243;-75
2020/12/01 10:42:32;;;;;;;28.60;21.65;;;4.50;1.00;;;;;;5109244;28;20266;-78
2020/12/01 10:44:58;;;;;;;32.88;25.88;;;4.50;1.00;;;;;;5112028;28;20224;-77
2020/12/01 10:47:24;;;;;;;32.47;22.98;;;4.50;1.00;;;;;;5107106;28;20223;-77
2020/12/01 10:49:50;;;;;;;31.40;23.02;;;4.60;1.00;;;;;;5109623;28;20239;-79
2020/12/01 10:52:17;;;;;;;30.88;23.67;;;4.60;1.00;;;;;;5103119;28;20268;-76
2020/12/01 10:54:43;;;;;;;31.52;23.63;;;4.60;1.00;;;;;;5098303;28;20251;-75
2020/12/01 10:57:10;;;;;;;28.02;21.95;;;4.70;1.00;;;;;;5098083;28;20335;-77
2020/12/01 10:59:36;;;;;;;27.90;21.63;;;4.70;1.00;;;;;;5085854;28;20259;-78
2020/12/01 11:02:03;;;;;;;26.38;20.77;;;4.80;1.00;;;;;;5088782;28;20232;-77
2020/12/01 11:04:29;;;;;;;32.40;23.80;;;4.80;1.00;;;;;;5091669;28;20219;-76
2020/12/01 11:06:55;;;;;;;27.23;21.52;;;4.90;1.00;;;;;;5087669;28;20226;-78
2020/12/01 11:09:21;;;;;;;29.25;23.75;;;4.90;1.00;;;;;;5088250;28;20899;-79
2020/12/01 11:11:47;;;;;;;30.83;22.75;;;4.90;1.00;;;;;;5086348;28;20292;-76
2020/12/01 11:14:14;;;;;;;32.13;23.45;;;4.90;1.00;;;;;;5092374;28;20761;-76
2020/12/01 11:16:41;;;;;;;27.98;22.40;;;5.10;1.00;;;;;;5091614;28;20242;-76
2020/12/01 11:19:07;;;;;;;29.40;22.33;;;5.00;1.00;;;;;;5103405;28;20276;-76
2020/12/01 11:21:35;;;;;;;29.63;23.75;;;5.00;1.00;;;;;;5098159;28;20240;-74
2020/12/01 11:24:02;;;;;;;31.23;21.92;;;5.00;1.00;;;;;;5104412;28;20289;-75
2020/12/01 11:26:28;;;;;;;29.98;22.63;;;5.00;1.00;;;;;;5096360;28;20221;-74
2020/12/01 11:28:54;;;;;;;29.42;22.70;;;5.20;1.00;;;;;;5100627;28;20247;-75
2020/12/01 11:31:21;;;;;;;25.77;21.40;;;5.40;1.00;;;;;;5089938;28;20224;-76
2020/12/01 11:33:58;;;;;;;26.75;22.60;;;5.50;1.00;;;;;;5090770;28;20252;-76
2020/12/01 11:36:24;;;;;;;29.88;22.50;;;5.70;1.00;;;;;;5089274;28;20240;-77
2020/12/01 11:38:51;;;;;;;27.80;21.92;;;5.60;1.00;;;;;;5090852;28;20312;-76
2020/12/01 11:41:17;;;;;;;31.08;21.90;;;5.60;1.00;;;;;;5088108;28;20727;-74
2020/12/01 11:43:43;;;;;;;25.88;21.40;;;5.60;1.00;;;;;;5091801;28;20228;-76
2020/12/01 11:46:10;;;;;;;27.58;21.60;;;5.60;1.00;;;;;;5087742;28;20242;-75
2020/12/01 11:48:38;;;;;;;25.27;20.80;;;5.70;1.00;;;;;;5083837;28;20243;-76
2020/12/01 11:51:04;;;;;;;28.58;22.38;;;5.60;1.00;;;;;;5085464;28;20659;-77
2020/12/01 11:53:30;;;;;;;28.98;22.15;;;5.50;1.00;;;;;;5089542;28;21035;-77
2020/12/01 11:55:57;;;;;;;28.60;22.58;;;5.40;1.00;;;;;;5085179;28;21080;-75
2020/12/01 11:58:23;;;;;;;33.47;24.05;;;5.40;1.00;;;;;;5088240;28;20248;-78
2020/12/01 12:00:49;;;;;;;28.58;22.80;;;5.40;1.00;;;;;;5089549;28;20684;-77
2020/12/01 12:03:15;;;;;;;26.20;22.58;;;5.60;1.00;;;;;;5087706;28;20244;-74
2020/12/01 12:05:42;;;;;;;27.25;22.85;;;5.60;1.00;;;;;;5092415;28;20230;-76
2020/12/01 12:08:09;;;;;;;28.02;22.33;;;5.60;1.00;;;;;;5087977;28;20213;-77
2020/12/01 12:10:35;;;;;;;31.65;23.65;;;5.60;1.00;;;;;;5088343;28;20700;-76
2020/12/01 12:13:01;;;;;;;28.02;22.13;;;5.60;1.00;;;;;;5097264;28;20778;-77
2020/12/01 12:15:27;;;;;;;27.48;22.35;;;5.60;1.00;;;;;;5085093;28;20224;-76
2020/12/01 12:17:53;;;;;;;33.67;23.75;;;5.60;1.00;;;;;;5091134;28;20224;-77
2020/12/01 12:20:20;;;;;;;29.25;21.15;;;5.60;1.00;;;;;;5096682;28;20778;-75
2020/12/01 12:22:48;;;;;;;27.02;23.17;;;5.60;1.00;;;;;;5098926;28;20656;-75
2020/12/01 12:25:14;;;;;;;29.90;23.50;;;5.60;1.00;;;;;;5090704;28;20888;-75
2020/12/01 12:27:41;;;;;;;26.60;21.75;;;5.50;1.00;;;;;;5092696;28;20258;-74
2020/12/01 12:30:07;;;;;;;28.08;22.00;;;5.40;1.00;;;;;;5092019;28;20252;-74
2020/12/01 12:32:34;;;;;;;26.27;21.25;;;5.40;1.00;;;;;;5093539;28;20347;-75
2020/12/01 12:35:01;;;;;;;31.85;22.23;;;5.50;1.00;;;;;;5089929;28;20216;-75
2020/12/01 12:37:27;;;;;;;31.23;22.65;;;5.40;1.00;;;;;;5077309;28;20699;-75
2020/12/01 12:39:54;;;;;;;30.33;22.25;;;5.40;1.00;;;;;;5084605;28;20719;-74
2020/12/01 12:42:21;;;;;;;28.67;21.70;;;5.30;1.00;;;;;;5083403;28;20255;-74
2020/12/01 12:44:47;;;;;;;28.35;23.08;;;5.30;1.00;;;;;;5086429;28;20766;-74
2020/12/01 12:47:13;;;;;;;30.50;22.80;;;5.20;1.00;;;;;;5085645;28;20571;-74
2020/12/01 12:49:40;;;;;;;30.27;24.10;;;5.20;1.00;;;;;;5081095;28;20228;-75
2020/12/01 12:52:06;;;;;;;28.55;21.75;;;5.10;1.00;;;;;;5089192;28;20224;-76
2020/12/01 12:54:32;;;;;;;28.58;21.90;;;5.10;1.00;;;;;;5083978;28;20243;-73
2020/12/01 12:57:00;;;;;;;28.35;21.42;;;5.00;1.00;;;;;;5081111;28;20698;-74
2020/12/01 12:59:26;;;;;;;27.13;21.58;;;5.00;1.00;;;;;;5080044;28;20228;-75
2020/12/01 13:01:52;;;;;;;29.48;20.83;;;4.90;1.00;;;;;;5085413;28;20319;-73
2020/12/01 13:04:18;;;;;;;29.52;22.50;;;4.90;1.00;;;;;;5085813;28;20376;-75
2020/12/01 13:06:44;;;;;;;25.63;21.02;;;4.90;1.00;;;;;;5088281;28;20267;-75
2020/12/01 13:09:11;;;;;;;27.30;21.90;;;4.80;1.00;;;;;;5083510;28;20228;-76
2020/12/01 13:11:37;;;;;;;27.65;21.70;;;4.80;1.00;;;;;;5095946;28;20228;-74
2020/12/01 13:14:04;;;;;;;26.83;21.98;;;4.90;1.00;;;;;;5099835;28;20274;-73
2020/12/01 13:16:30;;;;;;;29.08;21.30;;;5.00;1.00;;;;;;5103791;28;20268;-73
2020/12/01 13:18:57;;;;;;;29.00;22.13;;;4.90;1.00;;;;;;5103082;28;20246;-74
2020/12/01 13:21:23;;;;;;;28.65;22.45;;;5.00;1.00;;;;;;5103057;28;20231;-74
2020/12/01 13:23:49;;;;;;;26.92;20.15;;;5.20;1.00;;;;;;5108196;28;20236;-75
2020/12/01 13:26:18;;;;;;;27.42;20.45;;;5.30;1.00;;;;;;5104639;28;20215;-75
2020/12/01 13:28:45;;;;;;;28.58;21.50;;;5.30;1.00;;;;;;5093871;28;20274;-74
2020/12/01 13:31:12;;;;;;;27.55;21.45;;;5.40;1.00;;;;;;5085380;28;20220;-74